Time;durP1;ratioP1;P1;durP2;ratioP2;P2;SDS_P1;SDS_P2;PMS_P1;PMS_P2;Temp;Humidity;BMP_temperature;BMP_pressure;BME280_temperature;BME280_humidity;BME280_pressure;Samples;Min_cycle;Max_cycle;Signal;HPM_P1;HPM_P2
2022/10/11 00:01:04;;;;;;;;;;;29.60;90.20;;;;;;5052717;28;19984;-50
2022/10/11 00:03:30;;;;;;;;;;;29.60;89.80;;;;;;5058168;28;19941;-46
2022/10/11 00:05:56;;;;;;;;;;;29.60;89.80;;;;;;5060089;28;24067;-47
2022/10/11 00:08:22;;;;;;;;;;;29.60;89.50;;;;;;5060520;28;19928;-49
2022/10/11 00:10:55;;;;;;;;;;;29.60;89.40;;;;;;5060067;28;24076;-53
2022/10/11 00:13:21;;;;;;;;;;;29.50;89.40;;;;;;5060072;28;20142;-48
2022/10/11 00:15:48;;;;;;;;;;;29.50;88.70;;;;;;5060274;28;19905;-46
2022/10/11 00:18:14;;;;;;;;;;;29.40;89.00;;;;;;5060239;28;19904;-45
2022/10/11 00:20:41;;;;;;;;;;;29.40;88.60;;;;;;5059845;28;20195;-52
2022/10/11 00:23:07;;;;;;;;;;;29.30;88.50;;;;;;5059993;28;24078;-44
2022/10/11 00:25:33;;;;;;;;;;;29.30;88.60;;;;;;5059711;28;24103;-55
2022/10/11 00:27:59;;;;;;;;;;;29.30;88.70;;;;;;5055375;28;20072;-48
2022/10/11 00:30:25;;;;;;;;;;;29.30;88.70;;;;;;5068353;27;20261;-48
2022/10/11 00:32:53;;;;;;;;;;;29.30;88.60;;;;;;5032467;28;24075;-52
2022/10/11 00:35:19;;;;;;;;;;;29.30;88.10;;;;;;5102070;27;24098;-47
2022/10/11 00:37:45;;;;;;;;;;;29.30;87.90;;;;;;5106326;27;24061;-47
2022/10/11 00:40:15;;;;;;;;;;;29.30;88.00;;;;;;5053309;27;19946;-46
2022/10/11 00:42:41;;;;;;;;;;;29.30;87.90;;;;;;5095220;27;24090;-51
2022/10/11 00:45:26;;;;;;;;;;;29.20;87.70;;;;;;5043685;28;19972;-44
2022/10/11 00:47:53;;;;;;;;;;;29.20;87.50;;;;;;5069042;27;24088;-47
2022/10/11 00:50:21;;;;;;;;;;;29.20;87.40;;;;;;5067368;27;19968;-56
2022/10/11 00:52:52;;;;;;;;;;;29.10;87.60;;;;;;5055916;27;19911;-49
2022/10/11 00:55:19;;;;;;;;;;;29.10;87.30;;;;;;5064320;27;20002;-45
2022/10/11 00:57:47;;;;;;;;;;;29.10;87.40;;;;;;5067262;27;19912;-45
2022/10/11 01:00:14;;;;;;;;;;;29.10;87.60;;;;;;5056237;28;20110;-47
2022/10/11 01:02:41;;;;;;;;;;;29.00;87.60;;;;;;5067419;27;19944;-44
2022/10/11 01:05:12;;;;;;;;;;;29.00;87.30;;;;;;5062296;27;24054;-51
2022/10/11 01:07:39;;;;;;;;;;;29.00;87.20;;;;;;5063810;27;19941;-43
2022/10/11 01:10:06;;;;;;;;;;;29.00;87.20;;;;;;5067497;27;19917;-44
2022/10/11 01:12:32;;;;;;;;;;;29.00;87.00;;;;;;5083710;27;19917;-44
2022/10/11 01:15:04;;;;;;;;;;;29.00;86.90;;;;;;5056923;28;19905;-45
2022/10/11 01:17:37;;;;;;;;;;;29.00;86.90;;;;;;5061910;27;19916;-46
2022/10/11 01:20:09;;;;;;;;;;;29.00;87.00;;;;;;5163783;27;19907;-48
2022/10/11 01:22:35;;;;;;;;;;;28.90;87.10;;;;;;5104461;27;24079;-44
2022/10/11 01:25:01;;;;;;;;;;;28.90;86.80;;;;;;5024970;28;19909;-47
2022/10/11 01:27:45;;;;;;;;;;;28.90;86.80;;;;;;5051565;27;24092;-47
2022/10/11 01:30:40;;;;;;;;;;;28.90;86.90;;;;;;5119313;27;19907;-46
2022/10/11 01:33:25;;;;;;;;;;;28.90;87.10;;;;;;5069977;28;19945;-47
2022/10/11 01:35:56;;;;;;;;;;;28.90;86.70;;;;;;5056292;28;24072;-46
2022/10/11 01:38:28;;;;;;;;;;;28.90;86.70;;;;;;5047599;27;19975;-48
2022/10/11 01:40:57;;;;;;;;;;;28.90;86.70;;;;;;5042161;28;20306;-50
2022/10/11 01:43:25;;;;;;;;;;;28.90;87.10;;;;;;5061166;27;19904;-48
2022/10/11 01:45:52;;;;;;;;;;;28.90;87.10;;;;;;5075930;27;24074;-47
2022/10/11 01:48:18;;;;;;;;;;;28.80;86.90;;;;;;5082846;27;19912;-43
2022/10/11 01:50:49;;;;;;;;;;;28.80;86.70;;;;;;5167573;27;19903;-48
2022/10/11 01:53:34;;;;;;;;;;;28.80;86.60;;;;;;5079066;27;19925;-46
2022/10/11 01:56:09;;;;;;;;;;;28.80;86.70;;;;;;5061823;27;19945;-48
2022/10/11 01:58:44;;;;;;;;;;;28.70;86.70;;;;;;5090396;27;25099;-46
2022/10/11 02:01:47;;;;;;;;;;;28.70;86.70;;;;;;5156752;27;19907;-44
2022/10/11 02:04:22;;;;;;;;;;;28.70;86.40;;;;;;4993079;28;19912;-46
2022/10/11 02:07:14;;;;;;;;;;;28.60;86.50;;;;;;5036028;28;20045;-43
2022/10/11 02:09:59;;;;;;;;;;;28.70;86.70;;;;;;5051813;28;24060;-46
2022/10/11 02:12:45;;;;;;;;;;;28.60;86.30;;;;;;5067224;27;19904;-45
2022/10/11 02:15:13;;;;;;;;;;;28.60;86.60;;;;;;5157888;27;19907;-48
2022/10/11 02:17:42;;;;;;;;;;;28.50;86.40;;;;;;5136375;27;24082;-47
2022/10/11 02:20:12;;;;;;;;;;;28.60;86.30;;;;;;5048411;27;19909;-46
2022/10/11 02:22:39;;;;;;;;;;;28.60;86.20;;;;;;5061897;27;20219;-44
2022/10/11 02:25:08;;;;;;;;;;;28.50;85.70;;;;;;5112731;27;19907;-44
2022/10/11 02:27:36;;;;;;;;;;;28.60;85.80;;;;;;5065278;27;24097;-52
2022/10/11 02:30:04;;;;;;;;;;;28.60;85.70;;;;;;5111692;27;19921;-48
2022/10/11 02:32:31;;;;;;;;;;;28.50;85.70;;;;;;5054125;28;19915;-45
2022/10/11 02:34:58;;;;;;;;;;;28.50;85.80;;;;;;5062125;28;19905;-45
2022/10/11 02:37:31;;;;;;;;;;;28.50;85.40;;;;;;5061255;28;19909;-50
2022/10/11 02:40:06;;;;;;;;;;;28.50;85.40;;;;;;5064434;27;19905;-48
2022/10/11 02:42:43;;;;;;;;;;;28.50;85.60;;;;;;5053818;28;19955;-44
2022/10/11 02:45:15;;;;;;;;;;;28.40;85.30;;;;;;5061407;28;19948;-41
2022/10/11 02:47:42;;;;;;;;;;;28.40;85.20;;;;;;5061619;27;19911;-41
2022/10/11 02:50:10;;;;;;;;;;;28.40;85.10;;;;;;5044019;27;19917;-50
2022/10/11 02:52:37;;;;;;;;;;;28.40;85.10;;;;;;5051762;27;19957;-50
2022/10/11 02:55:04;;;;;;;;;;;28.40;85.30;;;;;;5113481;27;24062;-49
2022/10/11 02:57:30;;;;;;;;;;;28.40;85.00;;;;;;5113689;27;19967;-47
2022/10/11 02:59:57;;;;;;;;;;;28.40;85.00;;;;;;5060281;28;19901;-50
2022/10/11 03:02:23;;;;;;;;;;;28.40;84.80;;;;;;5099576;27;24107;-41
2022/10/11 03:04:49;;;;;;;;;;;28.30;85.10;;;;;;5105119;27;19930;-48
2022/10/11 03:07:15;;;;;;;;;;;28.30;85.40;;;;;;5069003;27;24072;-42
2022/10/11 03:09:41;;;;;;;;;;;28.30;85.60;;;;;;5054223;27;19905;-44
2022/10/11 03:12:07;;;;;;;;;;;28.40;85.60;;;;;;5051600;28;20270;-42
2022/10/11 03:14:33;;;;;;;;;;;28.40;85.60;;;;;;5053803;27;24124;-43
2022/10/11 03:17:00;;;;;;;;;;;28.40;85.50;;;;;;5064267;27;19916;-45
2022/10/11 03:19:26;;;;;;;;;;;28.40;85.60;;;;;;5048030;27;24073;-42
2022/10/11 03:21:52;;;;;;;;;;;28.40;85.70;;;;;;5059166;27;24074;-45
2022/10/11 03:24:18;;;;;;;;;;;28.40;85.60;;;;;;5053233;28;24082;-44
2022/10/11 03:26:44;;;;;;;;;;;28.40;85.50;;;;;;5041123;28;19936;-48
2022/10/11 03:29:10;;;;;;;;;;;28.40;85.50;;;;;;5074676;27;20197;-42
2022/10/11 03:31:36;;;;;;;;;;;28.40;85.30;;;;;;5165573;27;24114;-43
2022/10/11 03:34:03;;;;;;;;;;;28.40;85.40;;;;;;5166090;27;19903;-45
2022/10/11 03:36:29;;;;;;;;;;;28.40;85.40;;;;;;5165591;27;19942;-49
2022/10/11 03:38:55;;;;;;;;;;;28.40;85.40;;;;;;5165830;27;19906;-42
2022/10/11 03:41:21;;;;;;;;;;;28.40;85.50;;;;;;5165563;27;19990;-43
2022/10/11 03:43:47;;;;;;;;;;;28.40;85.60;;;;;;5166209;27;19911;-46
2022/10/11 03:46:14;;;;;;;;;;;28.40;85.60;;;;;;5165597;27;19910;-41
2022/10/11 03:48:40;;;;;;;;;;;28.40;85.70;;;;;;5083409;27;19911;-46
2022/10/11 03:51:06;;;;;;;;;;;28.40;85.80;;;;;;5056894;28;25121;-44
2022/10/11 03:53:32;;;;;;;;;;;28.30;85.80;;;;;;5060449;28;24072;-46
2022/10/11 03:55:59;;;;;;;;;;;28.40;86.10;;;;;;5060605;28;19908;-43
2022/10/11 03:58:25;;;;;;;;;;;28.40;86.00;;;;;;5060461;28;24085;-44
2022/10/11 04:00:52;;;;;;;;;;;28.30;86.10;;;;;;5047944;27;24083;-45
2022/10/11 04:03:18;;;;;;;;;;;28.40;86.40;;;;;;5041179;28;19955;-44
2022/10/11 04:05:45;;;;;;;;;;;28.40;86.40;;;;;;5149045;27;24073;-54
2022/10/11 04:08:11;;;;;;;;;;;28.40;86.60;;;;;;5162140;27;19903;-49
2022/10/11 04:10:37;;;;;;;;;;;28.30;85.90;;;;;;5168951;27;19903;-45
2022/10/11 04:13:03;;;;;;;;;;;28.30;85.50;;;;;;5169434;27;24079;-42
2022/10/11 04:15:29;;;;;;;;;;;28.30;85.20;;;;;;5169515;27;20139;-46
2022/10/11 04:17:55;;;;;;;;;;;28.30;85.60;;;;;;5170075;27;19911;-45
2022/10/11 04:20:21;;;;;;;;;;;28.20;85.40;;;;;;5168315;27;19914;-48
2022/10/11 04:22:48;;;;;;;;;;;28.20;85.20;;;;;;5169260;27;19907;-48
2022/10/11 04:25:14;;;;;;;;;;;28.20;84.40;;;;;;5168053;27;20128;-49
2022/10/11 04:27:40;;;;;;;;;;;28.20;84.40;;;;;;5166986;27;19902;-52
2022/10/11 04:30:06;;;;;;;;;;;28.20;84.70;;;;;;5166322;27;24107;-51
2022/10/11 04:32:33;;;;;;;;;;;28.10;84.50;;;;;;5062444;27;24103;-51
2022/10/11 04:34:59;;;;;;;;;;;28.10;84.80;;;;;;5047215;28;20074;-43
2022/10/11 04:37:25;;;;;;;;;;;28.20;84.90;;;;;;5043207;28;24073;-47
2022/10/11 04:39:51;;;;;;;;;;;28.20;85.00;;;;;;5046492;28;20036;-42
2022/10/11 04:42:17;;;;;;;;;;;28.20;84.80;;;;;;5051259;28;25127;-45
2022/10/11 04:44:43;;;;;;;;;;;28.30;84.80;;;;;;5059000;28;24097;-43
2022/10/11 04:47:10;;;;;;;;;;;28.20;84.90;;;;;;5063141;28;20050;-46
2022/10/11 04:49:36;;;;;;;;;;;28.30;85.00;;;;;;5063225;28;24067;-43
2022/10/11 04:52:02;;;;;;;;;;;28.30;84.90;;;;;;5050142;28;19909;-47
2022/10/11 04:54:28;;;;;;;;;;;28.30;84.80;;;;;;5043819;28;19905;-44
2022/10/11 04:56:54;;;;;;;;;;;28.30;84.80;;;;;;5042749;28;25060;-43
2022/10/11 04:59:20;;;;;;;;;;;28.30;85.00;;;;;;5043056;28;20104;-43
2022/10/11 05:01:47;;;;;;;;;;;28.30;85.10;;;;;;5042820;28;24106;-47
2022/10/11 05:04:13;;;;;;;;;;;28.30;85.30;;;;;;5091515;27;19904;-44
2022/10/11 05:06:39;;;;;;;;;;;28.30;85.30;;;;;;5119386;27;24094;-41
2022/10/11 05:09:05;;;;;;;;;;;28.30;85.50;;;;;;5047531;28;20182;-42
2022/10/11 05:11:31;;;;;;;;;;;28.30;85.60;;;;;;5042681;28;24087;-43
2022/10/11 05:13:57;;;;;;;;;;;28.30;85.70;;;;;;5044692;28;19908;-42
2022/10/11 05:16:24;;;;;;;;;;;28.30;85.70;;;;;;5062113;28;19909;-44
2022/10/11 05:18:50;;;;;;;;;;;28.30;86.00;;;;;;5056476;28;19961;-43
2022/10/11 05:21:17;;;;;;;;;;;28.30;86.00;;;;;;5062655;28;19920;-40
2022/10/11 05:23:44;;;;;;;;;;;28.20;86.10;;;;;;5062612;28;20177;-50
2022/10/11 05:26:10;;;;;;;;;;;28.20;86.20;;;;;;5062918;28;19915;-44
2022/10/11 05:28:36;;;;;;;;;;;28.20;86.30;;;;;;5062996;28;19976;-51
2022/10/11 05:31:02;;;;;;;;;;;28.20;86.50;;;;;;5043940;28;25116;-51
2022/10/11 05:33:29;;;;;;;;;;;28.20;86.60;;;;;;5109388;27;19903;-52
2022/10/11 05:35:55;;;;;;;;;;;28.20;86.70;;;;;;5167900;27;24121;-48
2022/10/11 05:38:21;;;;;;;;;;;28.20;86.70;;;;;;5167928;27;19899;-46
2022/10/11 05:40:48;;;;;;;;;;;28.20;86.70;;;;;;5167925;27;20048;-45
2022/10/11 05:43:14;;;;;;;;;;;28.20;86.40;;;;;;5167836;27;19903;-43
2022/10/11 05:45:41;;;;;;;;;;;28.20;86.50;;;;;;5124937;27;24076;-44
2022/10/11 05:48:08;;;;;;;;;;;28.20;86.60;;;;;;5080309;27;20134;-43
2022/10/11 05:50:35;;;;;;;;;;;28.10;86.50;;;;;;5056539;28;24094;-47
2022/10/11 05:53:01;;;;;;;;;;;28.10;86.50;;;;;;5062216;28;24104;-47
2022/10/11 05:55:27;;;;;;;;;;;28.10;86.40;;;;;;5061727;28;24075;-48
2022/10/11 05:57:54;;;;;;;;;;;28.10;86.40;;;;;;5053668;28;24109;-42
2022/10/11 06:00:21;;;;;;;;;;;28.10;86.30;;;;;;5042117;28;19973;-42
2022/10/11 06:02:47;;;;;;;;;;;28.10;86.20;;;;;;5042011;28;19968;-41
2022/10/11 06:05:13;;;;;;;;;;;28.10;86.30;;;;;;5041832;28;24108;-42
2022/10/11 06:07:39;;;;;;;;;;;28.10;86.40;;;;;;5041839;28;20189;-45
2022/10/11 06:10:05;;;;;;;;;;;28.10;86.80;;;;;;5046874;28;24099;-50
2022/10/11 06:12:32;;;;;;;;;;;28.10;87.20;;;;;;5041811;28;24069;-46
2022/10/11 06:14:58;;;;;;;;;;;28.00;87.50;;;;;;5042318;28;19901;-42
2022/10/11 06:17:24;;;;;;;;;;;28.10;87.70;;;;;;5041588;28;20160;-52
2022/10/11 06:19:50;;;;;;;;;;;28.00;88.00;;;;;;5042221;28;19913;-47
2022/10/11 06:22:17;;;;;;;;;;;28.00;88.80;;;;;;5041765;28;19920;-47
2022/10/11 06:24:43;;;;;;;;;;;28.00;89.50;;;;;;5042442;28;20127;-48
2022/10/11 06:27:09;;;;;;;;;;;28.00;90.20;;;;;;5041912;28;20149;-41
2022/10/11 06:29:35;;;;;;;;;;;28.00;90.30;;;;;;5042401;28;24116;-50
2022/10/11 06:32:02;;;;;;;;;;;28.00;90.50;;;;;;5041363;28;19920;-44
2022/10/11 06:34:29;;;;;;;;;;;28.00;90.60;;;;;;5042080;28;19911;-52
2022/10/11 06:36:55;;;;;;;;;;;28.00;90.90;;;;;;5042071;28;19909;-54
2022/10/11 06:39:21;;;;;;;;;;;28.00;90.90;;;;;;5042425;28;20184;-50
2022/10/11 06:41:47;;;;;;;;;;;28.00;91.00;;;;;;5041653;28;19917;-57
2022/10/11 06:44:14;;;;;;;;;;;28.00;91.10;;;;;;5041732;28;19964;-52
2022/10/11 06:46:40;;;;;;;;;;;28.00;91.30;;;;;;5042010;28;19916;-42
2022/10/11 06:49:06;;;;;;;;;;;28.00;91.40;;;;;;5041620;28;20050;-44
2022/10/11 06:51:34;;;;;;;;;;;28.00;91.40;;;;;;5041636;28;19932;-49
2022/10/11 06:54:00;;;;;;;;;;;28.00;91.60;;;;;;5042117;28;20223;-45
2022/10/11 06:56:27;;;;;;;;;;;28.00;91.60;;;;;;5041305;28;19909;-46
2022/10/11 06:58:55;;;;;;;;;;;28.00;91.50;;;;;;5041984;28;20046;-50
2022/10/11 07:01:22;;;;;;;;;;;28.00;91.50;;;;;;5050493;28;19913;-47
2022/10/11 07:03:49;;;;;;;;;;;28.00;91.50;;;;;;5061461;28;24053;-41
2022/10/11 07:06:17;;;;;;;;;;;27.90;91.50;;;;;;5061352;28;20202;-45
2022/10/11 07:08:43;;;;;;;;;;;27.80;91.60;;;;;;5061412;28;20028;-45
2022/10/11 07:11:10;;;;;;;;;;;27.80;91.70;;;;;;5061355;28;19916;-43
2022/10/11 07:13:37;;;;;;;;;;;27.80;91.80;;;;;;5061327;28;25092;-42
2022/10/11 07:16:04;;;;;;;;;;;27.70;91.90;;;;;;5061512;28;20203;-43
2022/10/11 07:18:30;;;;;;;;;;;27.60;92.00;;;;;;5061518;28;20042;-43
2022/10/11 07:20:57;;;;;;;;;;;27.60;92.00;;;;;;5060945;28;20069;-42
2022/10/11 07:23:24;;;;;;;;;;;27.60;92.00;;;;;;5061156;28;19905;-45
2022/10/11 07:25:53;;;;;;;;;;;27.60;92.00;;;;;;5060893;28;19920;-49
2022/10/11 07:28:22;;;;;;;;;;;27.60;92.00;;;;;;5060776;28;19900;-43
2022/10/11 07:30:48;;;;;;;;;;;27.60;92.00;;;;;;5060631;27;19912;-46
2022/10/11 07:33:15;;;;;;;;;;;27.60;92.00;;;;;;5060599;28;19936;-40
2022/10/11 07:35:41;;;;;;;;;;;27.60;92.00;;;;;;5060858;28;20096;-44
2022/10/11 07:38:07;;;;;;;;;;;27.60;91.90;;;;;;5060953;28;20132;-42
2022/10/11 07:40:39;;;;;;;;;;;27.50;91.80;;;;;;5060502;28;24052;-47
2022/10/11 07:43:05;;;;;;;;;;;27.50;91.80;;;;;;5060491;28;19905;-42
2022/10/11 07:45:31;;;;;;;;;;;27.40;91.90;;;;;;5060187;28;19909;-45
2022/10/11 07:47:58;;;;;;;;;;;27.40;91.90;;;;;;5060493;28;20057;-42
2022/10/11 07:50:24;;;;;;;;;;;27.40;92.00;;;;;;5060724;28;19908;-43
2022/10/11 07:52:50;;;;;;;;;;;27.40;91.90;;;;;;5060846;28;20038;-44
2022/10/11 07:55:16;;;;;;;;;;;27.40;92.00;;;;;;5060546;28;19951;-55
2022/10/11 07:57:42;;;;;;;;;;;27.40;92.00;;;;;;5060587;28;19913;-46
2022/10/11 08:00:09;;;;;;;;;;;27.40;92.10;;;;;;5060555;28;20041;-48
2022/10/11 08:02:35;;;;;;;;;;;27.30;92.10;;;;;;5060509;28;20158;-48
2022/10/11 08:05:01;;;;;;;;;;;27.40;92.10;;;;;;5060399;28;19916;-46
2022/10/11 08:07:28;;;;;;;;;;;27.40;92.10;;;;;;5060147;28;19911;-47
2022/10/11 08:09:55;;;;;;;;;;;27.40;92.10;;;;;;5061120;28;19938;-52
2022/10/11 08:12:21;;;;;;;;;;;27.40;92.00;;;;;;5060373;28;20068;-47
2022/10/11 08:14:47;;;;;;;;;;;27.40;92.00;;;;;;5061116;28;19934;-44
2022/10/11 08:17:13;;;;;;;;;;;27.40;92.10;;;;;;5060325;28;19913;-44
2022/10/11 08:19:39;;;;;;;;;;;27.40;92.10;;;;;;5060645;28;19912;-48
2022/10/11 08:22:06;;;;;;;;;;;27.40;92.10;;;;;;5060244;28;19976;-44
2022/10/11 08:24:32;;;;;;;;;;;27.40;92.00;;;;;;5060532;28;19919;-45
2022/10/11 08:26:58;;;;;;;;;;;27.40;92.10;;;;;;5059871;28;24089;-49
2022/10/11 08:29:24;;;;;;;;;;;27.40;92.20;;;;;;5059826;28;19936;-49
2022/10/11 08:31:50;;;;;;;;;;;27.30;92.30;;;;;;5060387;28;19913;-41
2022/10/11 08:34:16;;;;;;;;;;;27.20;92.50;;;;;;5060719;28;19927;-49
2022/10/11 08:36:42;;;;;;;;;;;27.10;92.50;;;;;;5060494;28;20185;-43
2022/10/11 08:39:10;;;;;;;;;;;27.10;92.60;;;;;;5060714;28;19941;-43
2022/10/11 08:42:08;;;;;;;;;;;27.00;92.60;;;;;;5096184;27;19938;-49
2022/10/11 08:44:41;;;;;;;;;;;27.10;92.70;;;;;;5108426;27;24068;-45
2022/10/11 08:47:07;;;;;;;;;;;27.00;92.80;;;;;;5165106;27;19942;-41
2022/10/11 08:49:34;;;;;;;;;;;26.90;92.80;;;;;;5165912;27;19997;-45
2022/10/11 08:52:05;;;;;;;;;;;26.90;93.00;;;;;;5165113;27;19956;-46
2022/10/11 08:54:31;;;;;;;;;;;26.90;93.00;;;;;;5165722;27;19903;-48
2022/10/11 08:56:58;;;;;;;;;;;26.90;92.90;;;;;;5169134;27;20244;-44
2022/10/11 08:59:34;;;;;;;;;;;26.90;92.90;;;;;;5169420;27;24074;-48
2022/10/11 09:02:06;;;;;;;;;;;26.90;92.90;;;;;;5168773;27;19915;-46
2022/10/11 09:04:33;;;;;;;;;;;26.90;92.90;;;;;;5169109;27;19903;-44
2022/10/11 09:07:10;;;;;;;;;;;26.80;92.90;;;;;;5168913;27;19947;-42
2022/10/11 09:09:55;;;;;;;;;;;26.80;93.00;;;;;;5169133;27;19988;-46
2022/10/11 09:12:47;;;;;;;;;;;26.70;93.00;;;;;;5168354;27;19936;-42
2022/10/11 09:15:16;;;;;;;;;;;26.70;92.90;;;;;;5167903;27;19914;-43
2022/10/11 09:18:09;;;;;;;;;;;26.70;93.00;;;;;;5168324;27;20302;-46
2022/10/11 09:20:53;;;;;;;;;;;26.70;93.00;;;;;;5129043;27;19914;-40
2022/10/11 09:23:34;;;;;;;;;;;26.80;93.00;;;;;;5168333;27;19903;-40
2022/10/11 09:26:18;;;;;;;;;;;26.90;92.90;;;;;;5168043;27;25056;-50
2022/10/11 09:28:49;;;;;;;;;;;26.90;93.00;;;;;;5168733;27;19903;-45
2022/10/11 09:31:15;;;;;;;;;;;26.90;93.10;;;;;;5154329;27;19914;-42
2022/10/11 09:33:45;;;;;;;;;;;26.90;93.10;;;;;;5138069;27;19939;-41
2022/10/11 09:36:20;;;;;;;;;;;26.90;93.20;;;;;;5167953;27;24103;-50
2022/10/11 09:39:12;;;;;;;;;;;26.90;93.20;;;;;;5168475;27;20088;-41
2022/10/11 09:41:44;;;;;;;;;;;27.00;93.20;;;;;;5128965;27;20083;-40
2022/10/11 09:44:21;;;;;;;;;;;27.00;93.20;;;;;;5168653;27;19903;-47
2022/10/11 09:46:48;;;;;;;;;;;27.00;93.20;;;;;;5167286;27;19907;-45
2022/10/11 09:49:16;;;;;;;;;;;27.00;93.20;;;;;;5126806;27;19903;-41
2022/10/11 09:51:45;;;;;;;;;;;26.90;93.20;;;;;;5167842;27;19948;-42
2022/10/11 09:54:11;;;;;;;;;;;26.90;93.30;;;;;;5168477;27;19910;-45
2022/10/11 09:56:42;;;;;;;;;;;26.90;93.30;;;;;;5167952;27;20344;-40
2022/10/11 09:59:28;;;;;;;;;;;26.90;93.30;;;;;;5168227;27;19910;-39
2022/10/11 10:02:13;;;;;;;;;;;26.90;93.30;;;;;;5167200;27;24085;-43
2022/10/11 10:04:59;;;;;;;;;;;26.90;93.30;;;;;;5168187;27;19910;-40
2022/10/11 10:07:26;;;;;;;;;;;26.80;93.40;;;;;;5166616;27;19949;-45
2022/10/11 10:09:52;;;;;;;;;;;26.80;93.40;;;;;;5167719;27;19940;-46
2022/10/11 10:12:28;;;;;;;;;;;26.80;93.40;;;;;;5167052;27;24079;-42
2022/10/11 10:15:05;;;;;;;;;;;26.80;93.30;;;;;;5167366;27;19907;-44
2022/10/11 10:17:32;;;;;;;;;;;26.90;93.30;;;;;;5167046;27;19907;-41
2022/10/11 10:19:59;;;;;;;;;;;26.80;93.30;;;;;;5167922;27;24077;-45
2022/10/11 10:22:31;;;;;;;;;;;26.80;93.30;;;;;;5167440;27;19951;-42
2022/10/11 10:24:59;;;;;;;;;;;26.80;93.30;;;;;;5167534;27;19903;-42
2022/10/11 10:27:26;;;;;;;;;;;26.80;93.20;;;;;;5157663;27;19907;-44
2022/10/11 10:30:07;;;;;;;;;;;26.80;93.40;;;;;;5167787;27;20072;-41
2022/10/11 10:32:34;;;;;;;;;;;26.80;93.30;;;;;;5166978;27;24081;-41
2022/10/11 10:35:11;;;;;;;;;;;26.80;93.20;;;;;;5167034;27;19914;-42
2022/10/11 10:37:49;;;;;;;;;;;26.80;93.30;;;;;;5166892;27;19910;-46
2022/10/11 10:40:24;;;;;;;;;;;26.80;93.30;;;;;;5167048;27;19907;-47
2022/10/11 10:42:50;;;;;;;;;;;26.70;93.40;;;;;;5166547;27;19947;-44
2022/10/11 10:45:17;;;;;;;;;;;26.70;93.40;;;;;;5167047;27;19906;-44
2022/10/11 10:47:46;;;;;;;;;;;26.70;93.40;;;;;;5166833;27;19982;-46
2022/10/11 10:50:18;;;;;;;;;;;26.60;93.40;;;;;;5166531;27;19907;-50
2022/10/11 10:53:03;;;;;;;;;;;26.60;93.40;;;;;;5166545;27;19903;-50
2022/10/11 10:55:46;;;;;;;;;;;26.60;93.40;;;;;;5166415;27;19914;-42
2022/10/11 10:58:21;;;;;;;;;;;26.60;93.50;;;;;;5166677;27;19903;-46
2022/10/11 11:00:49;;;;;;;;;;;26.60;93.50;;;;;;5141732;27;19955;-43
2022/10/11 11:03:24;;;;;;;;;;;26.60;93.50;;;;;;5120469;27;19945;-41
2022/10/11 11:06:02;;;;;;;;;;;26.60;93.50;;;;;;5036870;27;25090;-44
2022/10/11 11:08:47;;;;;;;;;;;26.60;93.30;;;;;;5116793;27;19996;-43
2022/10/11 11:11:14;;;;;;;;;;;26.60;93.40;;;;;;5166387;27;19903;-43
2022/10/11 11:14:06;;;;;;;;;;;26.50;93.30;;;;;;5166504;27;19903;-42
2022/10/11 11:16:47;;;;;;;;;;;26.50;93.40;;;;;;5126135;27;19907;-46
2022/10/11 11:19:32;;;;;;;;;;;26.60;93.30;;;;;;5166514;27;19903;-41
2022/10/11 11:22:17;;;;;;;;;;;26.60;93.30;;;;;;5138707;27;19914;-47
2022/10/11 11:24:43;;;;;;;;;;;26.60;93.20;;;;;;5156927;27;19903;-47
2022/10/11 11:27:14;;;;;;;;;;;26.50;93.10;;;;;;5166672;27;19911;-47
2022/10/11 11:29:48;;;;;;;;;;;26.50;93.20;;;;;;5157278;27;19903;-44
2022/10/11 11:32:35;;;;;;;;;;;26.50;93.20;;;;;;5165825;27;19932;-49
2022/10/11 11:35:03;;;;;;;;;;;26.50;93.40;;;;;;5165722;27;24086;-43
2022/10/11 11:37:32;;;;;;;;;;;26.40;93.40;;;;;;5165747;27;19923;-44
2022/10/11 11:40:05;;;;;;;;;;;26.40;93.40;;;;;;5164877;27;24072;-46
2022/10/11 11:42:43;;;;;;;;;;;26.40;93.40;;;;;;5165922;27;24082;-42
2022/10/11 11:45:28;;;;;;;;;;;26.40;93.40;;;;;;5164045;27;19946;-45
2022/10/11 11:48:05;;;;;;;;;;;26.40;93.50;;;;;;5164253;27;19899;-46
2022/10/11 11:50:38;;;;;;;;;;;26.40;93.50;;;;;;5162921;27;20246;-46
2022/10/11 11:53:15;;;;;;;;;;;26.30;93.80;;;;;;5162309;27;20061;-54
2022/10/11 11:55:57;;;;;;;;;;;26.30;93.60;;;;;;5161981;27;20123;-44
2022/10/11 11:58:41;;;;;;;;;;;26.30;93.60;;;;;;5162622;27;19906;-49
2022/10/11 12:01:17;;;;;;;;;;;26.30;93.50;;;;;;5163800;27;24082;-46
2022/10/11 12:03:47;;;;;;;;;;;26.30;93.50;;;;;;5163675;27;19903;-46
2022/10/11 12:06:16;;;;;;;;;;;26.30;93.50;;;;;;5165479;27;24063;-46
2022/10/11 12:09:02;;;;;;;;;;;26.30;93.50;;;;;;5147113;27;20007;-46
2022/10/11 12:11:38;;;;;;;;;;;26.30;93.50;;;;;;5146834;27;19914;-44
2022/10/11 12:14:38;;;;;;;;;;;26.30;93.50;;;;;;5165969;27;19930;-43
2022/10/11 12:17:10;;;;;;;;;;;26.30;93.50;;;;;;5108710;27;19948;-43
2022/10/11 12:19:37;;;;;;;;;;;26.30;93.40;;;;;;5165546;27;19965;-45
2022/10/11 12:22:18;;;;;;;;;;;26.40;93.50;;;;;;5165364;27;19911;-48
2022/10/11 12:25:14;;;;;;;;;;;26.40;93.40;;;;;;5165307;27;24076;-47
2022/10/11 12:27:44;;;;;;;;;;;26.40;93.40;;;;;;5143554;27;19914;-45
2022/10/11 12:30:29;;;;;;;;;;;26.40;93.50;;;;;;5165780;27;19913;-44
2022/10/11 12:33:04;;;;;;;;;;;26.40;93.40;;;;;;5169339;27;24115;-44
2022/10/11 12:35:30;;;;;;;;;;;26.40;93.40;;;;;;5169520;27;19926;-46
2022/10/11 12:38:15;;;;;;;;;;;26.40;93.40;;;;;;5169543;27;19961;-45
2022/10/11 12:40:42;;;;;;;;;;;26.40;93.40;;;;;;5169124;27;19903;-55
2022/10/11 12:43:28;;;;;;;;;;;26.40;93.30;;;;;;5168955;27;19963;-51
2022/10/11 12:45:55;;;;;;;;;;;26.40;93.40;;;;;;5168785;27;19940;-51
2022/10/11 12:48:31;;;;;;;;;;;26.40;93.40;;;;;;5169507;27;24076;-51
2022/10/11 12:51:21;;;;;;;;;;;26.40;93.50;;;;;;5168803;27;24106;-46
2022/10/11 12:54:04;;;;;;;;;;;26.40;93.50;;;;;;5169261;27;19943;-49
2022/10/11 12:56:47;;;;;;;;;;;26.30;93.50;;;;;;5168718;27;19903;-44
2022/10/11 12:59:21;;;;;;;;;;;26.20;93.50;;;;;;5169256;27;19910;-48
2022/10/11 13:01:50;;;;;;;;;;;26.20;93.50;;;;;;5168197;27;24106;-44
2022/10/11 13:04:18;;;;;;;;;;;26.20;93.50;;;;;;5168664;27;19969;-42
2022/10/11 13:06:46;;;;;;;;;;;26.20;93.50;;;;;;5168689;27;19943;-44
2022/10/11 13:09:30;;;;;;;;;;;26.10;93.50;;;;;;5168843;27;19906;-44
2022/10/11 13:12:12;;;;;;;;;;;26.10;93.40;;;;;;5168550;27;24066;-46
2022/10/11 13:14:46;;;;;;;;;;;26.00;93.40;;;;;;5169547;27;19962;-48
2022/10/11 13:17:25;;;;;;;;;;;26.00;93.40;;;;;;5168159;27;24071;-47
2022/10/11 13:19:59;;;;;;;;;;;26.00;93.60;;;;;;5168607;27;24079;-46
2022/10/11 13:22:26;;;;;;;;;;;26.00;93.50;;;;;;5168088;27;19917;-43
2022/10/11 13:24:56;;;;;;;;;;;26.00;93.40;;;;;;5168748;27;19967;-42
2022/10/11 13:27:24;;;;;;;;;;;26.00;93.40;;;;;;5167876;27;19938;-42
2022/10/11 13:29:52;;;;;;;;;;;26.00;93.40;;;;;;5168272;27;19899;-43
2022/10/11 13:32:22;;;;;;;;;;;26.00;93.50;;;;;;5168128;27;19986;-42
2022/10/11 13:34:51;;;;;;;;;;;25.90;93.40;;;;;;5168667;27;19962;-42
2022/10/11 13:37:19;;;;;;;;;;;26.00;93.50;;;;;;5168095;27;20076;-46
2022/10/11 13:39:45;;;;;;;;;;;25.90;93.40;;;;;;5168617;27;19899;-45
2022/10/11 13:42:13;;;;;;;;;;;26.00;93.40;;;;;;5166681;27;24073;-46
2022/10/11 13:44:40;;;;;;;;;;;26.00;93.40;;;;;;5168253;27;19907;-49
2022/10/11 13:47:09;;;;;;;;;;;25.90;93.30;;;;;;5168017;27;19911;-50
2022/10/11 13:49:37;;;;;;;;;;;26.00;93.30;;;;;;5168526;27;19986;-49
2022/10/11 13:52:23;;;;;;;;;;;26.00;93.40;;;;;;5167804;27;24070;-48
2022/10/11 13:54:53;;;;;;;;;;;26.00;93.40;;;;;;5168546;27;19907;-50
2022/10/11 13:57:21;;;;;;;;;;;26.00;93.40;;;;;;5167833;27;20115;-57
2022/10/11 13:59:48;;;;;;;;;;;26.10;93.40;;;;;;5168343;27;19910;-48
2022/10/11 14:02:17;;;;;;;;;;;26.10;93.40;;;;;;5167761;27;19911;-49
2022/10/11 14:04:45;;;;;;;;;;;26.10;93.40;;;;;;5168023;27;20327;-51
2022/10/11 14:07:32;;;;;;;;;;;26.10;93.20;;;;;;5167544;27;20284;-43
2022/10/11 14:09:58;;;;;;;;;;;26.10;93.30;;;;;;5168008;27;19920;-52
2022/10/11 14:12:38;;;;;;;;;;;26.20;93.30;;;;;;5167272;27;19915;-52
2022/10/11 14:15:05;;;;;;;;;;;26.20;93.30;;;;;;5167510;27;19914;-48
2022/10/11 14:17:35;;;;;;;;;;;26.30;93.40;;;;;;5167060;27;24083;-49
2022/10/11 14:20:21;;;;;;;;;;;26.30;93.20;;;;;;5167574;27;19907;-52
2022/10/11 14:22:51;;;;;;;;;;;26.30;93.10;;;;;;5167182;27;19919;-55
2022/10/11 14:25:17;;;;;;;;;;;26.40;93.20;;;;;;5167374;27;19914;-54
2022/10/11 14:27:44;;;;;;;;;;;26.40;93.20;;;;;;5166984;27;24058;-55
2022/10/11 14:30:17;;;;;;;;;;;26.40;93.30;;;;;;5148054;27;20043;-53
2022/10/11 14:32:44;;;;;;;;;;;26.40;93.60;;;;;;5148700;27;24074;-53
2022/10/11 14:35:18;;;;;;;;;;;26.50;93.50;;;;;;5167184;27;19974;-51